Regional Weather Synopsis
Issued by NWS Denver/Boulder, CO

Home | Current Version | Previous Version | Text Only | Print | Product List | Glossary On
Versions: 1 2 3 4 5 6 7 8 9 10 11 12 13 14 15 16 17 18 19 20 21 22 23 24 25 26 27 28 29 30 31 32 33 34 35 36 37 38 39 40 41 42 43 44 45 46 47 48 49 50
000
NZUS99 KBOU 221549
SYNBOU

Hot-Air Balloon Forecast for Colorado
National Weather Service Denver/Boulder, Colorado
0845 MST Wednesday, January 22, 2020


* * * * * Northeast Colorado * * * * *

METAR KFNL 221456Z AUTO 26006KT 10SM CLR 01/M04 A2984 RMK AO2 SLP110
       T00061044 53009 FZRANO
METAR KFNL 221356Z AUTO 19003KT 10SM FEW110 00/M04 A2983 RMK AO2 SLP109
       T00001039 FZRANO
METAR KFNL 221256Z AUTO 12004KT 10SM CLR 02/M04 A2981 RMK AO2 SLP091
       T00171044 FZRANO

METAR KGXY 221456Z AUTO 32006KT 10SM CLR 03/M04 A2984 RMK AO2 SLP131
       T00281039 53010
METAR KGXY 221356Z AUTO 02009KT 10SM SCT120 02/M04 A2983 RMK AO2 SLP126
       T00221044 FZRANO
METAR KGXY 221256Z AUTO 35016KT 10SM CLR 03/M04 A2981 RMK AO2 SLP114
       T00281044

METAR KLMO 221535Z AUTO 00000KT 10SM CLR 03/M05 A2987 RMK AO2
       T00281048
METAR KLMO 221515Z AUTO 06003KT 10SM CLR 04/M05 A2987 RMK AO2
       T00351052
METAR KLMO 221455Z AUTO 20004KT 10SM CLR 04/M05 A2986 RMK AO2
       T00351051

METAR KBDU 221530Z AUTO 26012G17KT 10SM CLR 07/M08 A2986 RMK AO2
METAR KBDU 221512Z AUTO 29009G16KT 10SM CLR 07/M08 A2985 RMK AO2
METAR KBDU 221454Z AUTO 28011G17KT 10SM CLR 07/M08 A2984 RMK AO2

METAR KEIK 221542Z AUTO 00000KT 10SM CLR 02/M06 A2991 RMK AO2
       T00151060
METAR KEIK 221518Z AUTO 00000KT 10SM CLR 01/M07 A2991 RMK AO2
       T00141067
METAR KEIK 221500Z AUTO 00000KT 10SM CLR 01/M07 A2990 RMK AO2
       T00111070

KBJC 221253Z 2213/2312 26012KT P6SM BKN090 OVC200
     FM221600 30012KT P6SM SCT100 BKN200
     FM221900 32014G24KT P6SM SCT100 BKN220
     FM230100 30011KT P6SM FEW110 SCT220
METAR KBJC 221450Z 26006KT 10SM BKN090 04/M07 A2986
METAR KBJC 221347Z 26009KT 10SM BKN090 05/M07 A2983
METAR KBJC 221247Z 26006KT 10SM BKN090 05/M07 A2982

KDEN 221405Z 2214/2318 VRB05KT P6SM SCT100 BKN200
     FM221700 32012G24KT P6SM FEW080 BKN200
     FM230000 31010KT P6SM FEW100 SCT220
     FM230200 VRB04KT P6SM SCT220
     FM230500 20008KT P6SM FEW220
METAR KDEN 221453Z 00000KT 10SM FEW080 SCT160 BKN220 02/M06 A2985 RMK
       AO2 SLP105 T00221061 53012
METAR KDEN 221353Z 35005KT 10SM SCT100 BKN200 02/M07 A2983 RMK AO2
       SLP094 T00171067
METAR KDEN 221253Z 24008KT 10SM SCT100 BKN200 01/M06 A2981 RMK AO2
       SLP090 T00111061

METAR KFTG 221454Z 00000KT 10SM SCT100 BKN200 03/M06 A2986
METAR KFTG 221347Z 33005KT 10SM SCT100 BKN200 02/M06 A2984
METAR KFTG 221254Z AUTO 24007KT 10SM CLR 02/M06 A2982 RMK AO2
       T00211056

KBKF 220900Z 2209/2315 VRB06KT 9999 SCT100 QNH2982INS
     BECMG 2217/2218 35012G18KT 9999 SKC 520009 QNH2987INS
     TEMPO 2219/2301 35015G25KT
     BECMG 2304/2305 35009KT 9999 SKC QNH3001INS
     BECMG 2312/2313 19009KT 9999 FEW080 QNH3012INS TX10/2221Z
     TNM03/2309Z
METAR KBKF 221458Z 27008KT 10SM FEW070 SCT130 BKN220 04/M07 A2985 RMK
       AO2A SLP098 T00401066 53011
METAR KBKF 221358Z 28011G17KT 10SM FEW070 SCT110 BKN220 04/M07 A2984 RMK
       AO2A SLP095 T00361070

KAPA 221507Z 2215/2312 30010G20KT P6SM SCT100 BKN200
     FM222000 32014G22KT P6SM FEW080 BKN200
     FM230000 31010KT P6SM FEW100 SCT220
     FM230300 VRB04KT P6SM SCT220
     FM230600 19006KT P6SM FEW220
METAR KAPA 221453Z 29011G20KT 10SM FEW040 FEW080 SCT120 BKN200 05/M06
       A2985 RMK AO2 SLP108 T00501061 51011
METAR KAPA 221353Z 28005KT 10SM BKN100 02/M06 A2984 RMK AO2 SLP110
       T00171056
METAR KAPA 221253Z 28007KT 10SM SCT120 03/M05 A2983 RMK AO2 SLP098
       T00331050

METAR KMNH 221530Z AUTO 28006KT 10SM CLR 00/M06 A2988 RMK AO2
METAR KMNH 221512Z AUTO 27008KT 10SM CLR 00/M06 A2988 RMK AO2
METAR KMNH 221448Z AUTO 26005KT 10SM CLR M01/M06 A2988 RMK AO2

METAR KFMM 221535Z AUTO 30030G36KT 10SM SCT120 08/M07 A2984 RMK AO2
       T00801070
METAR KFMM 221515Z AUTO 29023G28KT 10SM CLR 07/M07 A2983 RMK AO2
       T00681070
METAR KFMM 221455Z AUTO 29019G25KT 10SM CLR 06/M07 A2983 RMK AO2
       T00611066

METAR KSTK 221540Z AUTO 31015G22KT 10SM CLR 07/M02 A2978 RMK AO2
METAR KSTK 221520Z AUTO 31014G19KT 10SM CLR 05/M03 A2978 RMK AO2
METAR KSTK 221500Z AUTO 31010KT 10SM CLR 02/M03 A2978 RMK AO2

METAR KAKO 221453Z AUTO 29012KT 10SM CLR 01/M05 A2979 RMK AO2 SLP106
       T00061050 53005
METAR KAKO 221353Z AUTO 27012KT 10SM CLR M01/M06 A2978 RMK AO2 SLP101
       T10111056
METAR KAKO 221253Z AUTO 29005KT 10SM FEW080 M02/M06 A2978 RMK AO2 SLP099
       T10171061 $

METAR KLIC 221455Z AUTO 34007KT 10SM CLR 02/M06 A2984 RMK AO2 SLP112
       T00221061 53011
METAR KLIC 221355Z AUTO 26004KT 10SM CLR M03/M08 A2982 RMK AO2 SLP113
       T10331078
METAR KLIC 221255Z AUTO 27007KT 10SM FEW120 M01/M07 A2981 RMK AO2 SLP099
       T10111072

METAR KHEQ 221530Z AUTO 30009G18KT 10SM CLR 06/M02 A2978 RMK AO2
METAR KHEQ 221510Z AUTO 30011G16KT 10SM CLR 06/M02 A2978 RMK AO2
METAR KHEQ 221450Z AUTO 29011G15KT 10SM CLR 05/M02 A2977 RMK AO2


METAR K2V5 221535Z AUTO 31010G15KT 10SM CLR 06/M03 A2980 RMK AO2
METAR K2V5 221515Z AUTO 31010G15KT 10SM SCT110 06/M03 A2979 RMK AO2
METAR K2V5 221455Z AUTO 31014KT 10SM BKN110 06/M03 A2979 RMK AO2

METAR KITR 221453Z AUTO 31009KT 10SM CLR 02/M03 A2980 RMK AO2 SLP094
       T00171033 53012
METAR KITR 221353Z AUTO 29009KT 10SM FEW095 M02/M05 A2978 RMK AO2 SLP093
       T10171050
METAR KITR 221253Z AUTO 29008KT 10SM BKN080 00/M04 A2977 RMK AO2 SLP082
       T00001044

Sunrise/Sunset for 01/22/2020
Fort Collins - 07:18:09 MST / 17:05:26 MST
Denver       - 07:15:40 MST / 17:07:04 MST
Sterling     - 07:10:58 MST / 16:57:47 MST

Denver/Boulder (KFTG) 01/22/20 15:34 UTC
Radar VAD winds      Height      Dir/Spd(kt)
                  20000 FT MSL...312/019
                  19000 FT MSL...314/012
                  18000 FT MSL...343/034
                  17000 FT MSL...322/019
                  16800 FT MSL...322/019
                   8100 FT MSL...196/000
                   8000 FT MSL...147/000

Denver/Boulder Aviation Discussion
Issued at 1030 UTC Wednesday, January 22, 2020

.AVIATION...(For the 12Z TAFS through 12Z Thursday morning)
Issued at 317 AM MST Wed Jan 22 2020
Light s-sw drainage winds expected through early this morning
before increasing and becoming gusty from the northwest this
afternoon with speeds up to 25kt. Will still see varying amounts
of middle and high level cloudiness through today but gradual
clearing tonight.


* * * * * Southeast Colorado * * * * *

METAR K4BM 221536Z AUTO 33011G21KT 10SM SCT024 M07/M12 A2995 RMK AO2
METAR K4BM 221512Z AUTO 33012G24KT 10SM CLR M07/M12 A2994 RMK AO2
METAR K4BM 221454Z AUTO 33014G26KT 290V350 10SM CLR M07/M12 A2995 RMK
       AO2

METAR KAFF 221456Z AUTO 35012G20KT 10SM CLR 04/M10 A2984 RMK AO2 SLP109
       T00411100 53007
METAR KAFF 221356Z AUTO 35011G18KT 10SM CLR 00/M08 A2982 RMK AO2 SLP114
       T00011076

KCOS 221304Z 2213/2312 02010KT P6SM SCT070 BKN080
     FM221700 34015G25KT P6SM BKN100
     FM222300 35012KT P6SM BKN090
     FM230500 35010KT P6SM FEW200
METAR KCOS 221454Z 36007KT 10SM FEW075 SCT210 BKN250 03/M07 A2986 RMK
       AO2 SLP109 T00331067 53008
METAR KCOS 221354Z 31008KT 10SM FEW075 SCT200 SCT250 03/M07 A2985 RMK
       AO2 SLP116 T00281067
METAR KCOS 221254Z 35008KT 10SM BKN170 02/M06 A2983 RMK AO2 SLP107
       T00221061

METAR KABH 221456Z AUTO 35006KT 10SM CLR M01/M06 A2987 RMK AO2 SLP145
       T10081060 52011
METAR KABH 221356Z AUTO 35008KT 10SM BKN190 M02/M07 A2985 RMK AO2 SLP143
       T10171074
METAR KABH 221256Z AUTO 33005KT 10SM FEW100 OVC200 00/M07 A2984 RMK AO2
       SLP129 T10041070

METAR KFLY 221535Z AUTO 29009G16KT 10SM CLR 05/M10 A2988 RMK AO2
       T00461096
METAR KFLY 221515Z AUTO 32006KT 290V360 10SM CLR 04/M08 A2988 RMK AO2
       T00401084
METAR KFLY 221455Z AUTO 34006KT 10SM CLR 03/M08 A2987 RMK AO2
       T00261077

METAR KFCS 221456Z AUTO 00000KT 10SM CLR 04/M05 A2984 RMK AO2 SLP126
       T00381049 53010 $
METAR KFCS 221356Z AUTO 36009KT 10SM CLR 01/M06 A2983 RMK AO2 SLP133
       T00091062 $

KPUB 221129Z 2212/2312 31008KT P6SM BKN080 OVC120
     FM221800 33015G25KT P6SM BKN090
     FM230000 02010KT P6SM BKN100
     FM230600 35012KT P6SM FEW150
METAR KPUB 221453Z 26004KT 10SM CLR M01/M06 A2985 RMK AO2 SLP121
       T10111061 53012
METAR KPUB 221353Z 00000KT 10SM CLR 00/M06 A2983 RMK AO2 SLP109
       T00001056
METAR KPUB 221253Z 28006KT 10SM CLR 00/M06 A2981 RMK AO2 SLP101
       T00001061

METAR KVTP 221536Z AUTO 25009KT 1 1/4SM BR OVC001 M06/M07 A2994 RMK AO2
       VIS 1/2V4
METAR KVTP 221512Z AUTO 25011G17KT 1 1/2SM BR OVC001 A2992 RMK AO2 VIS
       3/4V5
METAR KVTP 221454Z AUTO 25010KT 1 3/4SM BR OVC001 A2992 RMK AO2 VIS
       3/4V5

METAR KTAD 221454Z AUTO 29005KT 10SM BKN090 02/M04 A2987 RMK AO2 SLP105
       T00171039 53016
METAR KTAD 221354Z AUTO 27009KT 10SM CLR M02/M05 A2985 RMK AO2 SLP102
       T10171050
METAR KTAD 221254Z AUTO 27006KT 10SM SCT080 BKN095 01/M04 A2983 RMK AO2
       SLP088 T00111039

METAR KLHX 221453Z AUTO 26009KT 10SM FEW055 BKN070 OVC090 04/M03 A2984
       RMK AO2 RAB32E52 SLP100 P0000 60000 T00441028 53015
METAR KLHX 221353Z AUTO 26007KT 10SM FEW075 OVC095 05/M05 A2982 RMK AO2
       SLP090 T00501050
METAR KLHX 221253Z AUTO 27009KT 10SM OVC080 04/M05 A2981 RMK AO2 SLP090
       T00391050

METAR KLAA 221453Z AUTO 21005KT 10SM BKN070 OVC090 04/M04 A2981 RMK AO2
       SLP090 T00391039 53018
METAR KLAA 221353Z AUTO 22004KT 10SM FEW060 BKN080 OVC095 02/M04 A2979
       RMK AO2 SLP084 T00221039
METAR KLAA 221253Z AUTO 26007KT 10SM BKN100 01/M05 A2977 RMK AO2 SLP082
       T00061050

METAR KSPD 221456Z AUTO 33010KT 05/M03 A2981 RMK AO1 SLP086 T00501033
       51022
METAR KSPD 221356Z AUTO 33013KT 04/M04 A2979 RMK AO1 SLP079
       T00391039
METAR KSPD 221256Z AUTO 32015G22KT 03/M04 A2976 RMK AO1 SLP071
       T00331039

Sunrise/Sunset for 01/22/2020
Burlington - 07:03:53 MST / 16:57:20 MST
Pueblo     - 07:10:48 MST / 17:09:12 MST
Lamar      - 07:02:22 MST / 17:01:37 MST

Pueblo (KPUX) 01/22/20 15:34 UTC
Radar VAD winds      Height      Dir/Spd(kt)
                  21000 FT MSL...316/012
                  20000 FT MSL...303/019
                  19000 FT MSL...307/022
                  17000 FT MSL...333/021
                  16000 FT MSL...291/025
                  15000 FT MSL...250/014
                  14000 FT MSL...283/026
                  13000 FT MSL...295/034
                  12000 FT MSL...297/009
                  11000 FT MSL...286/029
                  11000 FT MSL...246/013
                  10000 FT MSL...266/016
                   9000 FT MSL...262/020
                   8700 FT MSL...263/021
                   8000 FT MSL...230/010
                   7900 FT MSL...274/004
                   6000 FT MSL...307/010
                   5900 FT MSL...320/010
                   5700 FT MSL...327/011

Pueblo Aviation Discussion
Issued at 1545 UTC Wednesday, January 22, 2020

.AVIATION...(For the 12Z TAFS through 12Z Thursday morning)
Issued at 429 AM MST Wed Jan 22 2020
KALS will have VFR conditions throughout the day but there is the
potential for fog development tomorrow morning for a few hours. If
fog develops expect IFR conditions.
KCOS and KPUB will have VFR conditions throughout the forecast
period. Some gusty northwesterly winds will develop during the
afternoon.


* * * * * Northwest Colorado * * * * *

METAR KCAG 221453Z AUTO 11005KT 9SM FEW039 BKN100 M06/M06 A3003 RMK AO2
       SLP204 T10561061 53007
METAR KCAG 221353Z AUTO 00000KT 10SM OVC043 M03/M04 A3002 RMK AO2 SLP195
       T10331044
METAR KCAG 221253Z AUTO 00000KT 10SM OVC042 M03/M04 A3001 RMK AO2 SLP192
       T10281039

METAR KHDN 221456Z AUTO 28003KT 10SM -SN OVC035 M03/M03 A3003 RMK AO2
       UPB30E49SNB04E30B49 SLP191 P0000 60001 T10281033 51007
       FZRANO
METAR KHDN 221356Z AUTO 22004KT 10SM FEW012 OVC037 M03/M03 A3003 RMK AO2
       UPE16B46E55SNB16E46 SLP189 P0000 T10281033 FZRANO
METAR KHDN 221256Z AUTO 00000KT 10SM UP FEW008 OVC034 M03/M03 A3002 RMK
       AO2 UPB45SNE39 SLP185 P0001 T10281028 FZRANO

METAR KSBS 221535Z AUTO 23004KT 10SM BKN032 OVC039 M02/M02 A3000 RMK AO1
       T10231023
METAR KSBS 221515Z AUTO 25003KT 10SM SCT017 BKN028 OVC040 M02/M02 A3000
       RMK AO1 T10251025
METAR KSBS 221455Z AUTO 00000KT 10SM BKN019 OVC027 M02/M02 A3001 RMK AO1
       T10251025

METAR KC07 221536Z AUTO 29010G17KT M1/4SM SN OVC002 A2995 RMK AO2
METAR KC07 221512Z AUTO 28009G19KT 240V310 1/4SM SN OVC002 A2994 RMK
       AO2
METAR KC07 221454Z AUTO 29009G20KT 1/4SM SN OVC002 A2994 RMK AO2
       P0001

METAR K33V 221515Z AUTO 10003KT 10SM SCT045 SCT055 SCT100 M07/M10 A2996
       RMK AO1
METAR K33V 221455Z AUTO 00000KT 10SM SCT085 SCT100 M04/M09 A2995 RMK
       AO1
METAR K33V 221435Z AUTO 21004KT 10SM SCT035 SCT041 SCT085 M04/M09 A2995
       RMK AO1

SPECI KEEO 221522Z AUTO 08003KT 5SM BR SCT007 BKN023 OVC110 M04/M06
       A3005 RMK AO2 SNE00 P0000 T10441056
METAR KEEO 221453Z AUTO 00000KT 3SM -SN BR OVC006 M05/M06 A3005 RMK AO2
       SNE02B23 SLP200 P0000 60000 T10501061 51010
SPECI KEEO 221432Z AUTO 00000KT 2 1/2SM -SN BR BKN007 OVC065 M04/M06
       A3004 RMK AO2 SNE02B23 P0000 T10441056

METAR K20V 221530Z AUTO 00000KT 10SM BKN042 OVC050 M06/M07 A3002 RMK
       AO2
METAR K20V 221512Z AUTO 00000KT 10SM BKN043 OVC050 M06/M07 A3002 RMK
       AO2
METAR K20V 221448Z AUTO 04003KT 10SM SCT043 BKN049 OVC065 M06/M06 A3000
       RMK AO2

METAR KGNB 221540Z AUTO 23009KT 10SM SCT021 BKN027 OVC035 M03/M06 A2999
       RMK AO2 T10291059
METAR KGNB 221517Z AUTO 23010KT 10SM SCT040 BKN048 M03/M06 A2999 RMK AO2
       T10341059
METAR KGNB 221500Z AUTO 24012KT 10SM -SN BKN040 OVC048 M03/M06 A2998 RMK
       AO2 T10321057

METAR K0CO 221530Z AUTO 33038KT OVC001 M12/M20 A2983 RMK AO2 PWINO
METAR K0CO 221512Z AUTO OVC001 M12/M20 A2984 RMK AO2 PWINO
METAR K0CO 221453Z AUTO OVC001 M12/M20 A2984 RMK AO2 PWINO

METAR KC99 221528Z AUTO 31013G27KT OVC007 M09/M10 A2988 RMK AO2
METAR KC99 221511Z AUTO 30013G25KT 290V360 OVC009 M09/M11 A2988 RMK
       AO2
METAR KC99 221449Z AUTO 30011G23KT OVC009 M09/M11 A2990 RMK AO2

KGJT 221122Z 2212/2312 15003KT P6SM VCFG OVC015
     FM221800 VRB03KT P6SM VCSH SCT010 BKN030
     FM222000 31004KT P6SM VCSH SCT020 BKN040
     FM230200 15005KT P6SM SCT015 BKN030
SPECI KGJT 221509Z 00000KT 5SM BR SCT010 OVC018 M01/M03 A3012 RMK AO2
       T10111028
METAR KGJT 221453Z 00000KT 5SM BR OVC009 M01/M03 A3012 RMK AO2 SLP215
       T10111028 53012
SPECI KGJT 221413Z 00000KT 7SM OVC009 M01/M03 A3011 RMK AO2
       T10111028

KRIL 221122Z 2212/2312 27005KT P6SM VCFG SCT010 BKN040 OVC050
     FM221800 27005KT 5SM -SHSN SCT015 OVC030
     FM222300 27005KT P6SM SCT020 BKN030
     FM230900 VRB04KT P6SM SCT035 BKN060
SPECI KRIL 221539Z AUTO 00000KT 1 1/2SM -SN BR FEW008 SCT018 OVC033
       00/M02 A3010 RMK AO2 SNB1455 P0000 T00001017
SPECI KRIL 221531Z AUTO 00000KT 2 1/2SM -SN BR FEW008 BKN020 OVC048
       00/M02 A3009 RMK AO2 SNB1455 P0000 T00001017
SPECI KRIL 221529Z AUTO 00000KT 3SM -SN BR FEW010 BKN022 OVC048 00/M02
       A3009 RMK AO2 SNB1455 P0000 T00001017

METAR K5SM 221524Z AUTO 1SM -SN OVC002 A3007 RMK AO2 VIS 1/2V2 1/2
METAR K5SM 221506Z AUTO 2SM -SN OVC002 A3007 RMK AO2
METAR K5SM 221442Z AUTO 1 1/4SM -SN OVC002 A3006 RMK AO2

KEGE 221301Z 2213/2312 12004KT P6SM VCFG OVC070
     FM221800 26002KT 5SM -SHSN SCT025 OVC050
     FM230000 25005KT P6SM SCT027 BKN040
METAR KEGE 221456Z 15003KT 10SM SCT070 M06/M06 A3006 RMK AO2 SLP228
       6//// T10561061 53014 PNO $
METAR KEGE 221356Z 10004KT 10SM FEW048 SCT055 BKN070 M04/M06 A3004 RMK
       AO2 SLP216 T10441056 PNO $
METAR KEGE 221256Z AUTO 12004KT 10SM OVC065 M04/M04 A3002 RMK AO2 SLP209
       T10391044 FZRANO PNO $

KASE 221521Z 2215/2312 32005KT 3SM -SN BR OVC010
     FM221600 32004KT 6SM -SN SCT005 OVC030
     FM222000 31005KT 3SM -SHSN SCT005 BKN020
     FM230500 31005KT P6SM SCT005 BKN030
METAR KASE 221453Z 32005KT 3SM -SN BR OVC010 M03/M04 A3002 RMK AO2
       SLP150 P0000 60001 T10331044 53012
METAR KASE 221353Z 36003KT 3SM -SN BR OVC008 M03/M04 A3001 RMK AO2 CIG
       006V010 SLP146 P0001 T10281044
SPECI KASE 221340Z AUTO 00000KT 3SM -SN BR OVC008 M03/M04 A3000 RMK AO2
       CIG 006V012 P0000 T10281039

METAR KCCU 221530Z AUTO 29021G29KT BKN003 BKN008 OVC013 M07/M10 A2996
       RMK AO2 PWINO
METAR KCCU 221512Z AUTO OVC003 M07/M10 A2995 RMK AO2 PWINO
METAR KCCU 221454Z AUTO 30010G23KT 270V330 BKN003 OVC008 M07/M10 A2997
       RMK AO2 PWINO

SPECI KLXV 221523Z AUTO 30004KT 3SM -SN BR OVC030 M07/M08 A2996 RMK AO2
       P0000 T10671083
METAR KLXV 221453Z AUTO 00000KT 1SM -SN BR OVC024 M07/M09 A2996 RMK AO2
       SLP119 P0001 60001 T10671089 53008
SPECI KLXV 221436Z AUTO 00000KT 2SM -SN BR OVC029 M07/M09 A2995 RMK AO2
       P0000 T10671089

Sunrise/Sunset for 01/22/2020
Rangely           - 07:31:49 MST / 17:21:27 MST
Grand Junction    - 07:28:29 MST / 17:22:59 MST
Steamboat Springs - 07:24:58 MST / 17:12:39 MST

Grand Junction (KGJX) 01/22/20 15:32 UTC
Radar VAD winds      Height      Dir/Spd(kt)
                  22000 FT MSL...187/000
                  17000 FT MSL...312/025
                  16300 FT MSL...319/018
                  16000 FT MSL...317/022
                  15000 FT MSL...320/017
                  14600 FT MSL...328/016
                  14000 FT MSL...321/018
                  13000 FT MSL...324/018
                  12900 FT MSL...335/016
                  12000 FT MSL...321/019
                  11100 FT MSL...332/017
                  11000 FT MSL...323/023
                  11000 FT MSL...323/023
                  10400 FT MSL...322/020

Grand Junction Aviation Discussion
Issued at 1133 UTC Wednesday, January 22, 2020

.AVIATION...(For the 12Z TAFS through 12Z Thursday morning)
Issued at 425 AM MST Wed Jan 22 2020
It is a complicated aviation forecast to say the least. Low
stratus, fog, and light snow is causing MVFR down to LIFR this
morning. Cigs and vis may try to improve some later this morning
and early afternoon, but the amount of moisture upstream does not
make that look promising. Another round of scattered snow showers
is expected to move across the area this afternoon. These showers
could briefly worsen the conditions as they pass over sites.
Models show the moisture hanging around tonight therefore stratus
and or fog is likely again.


* * * * * Southwest Colorado * * * * *

METAR KAJZ 221535Z AUTO 00000KT 1 1/4SM -SN OVC004 00/00 A3013 RMK AO2
       T00030000
METAR KAJZ 221515Z AUTO 00000KT 1 1/4SM -SN OVC002 00/00 A3013 RMK AO2
       T00020000
METAR KAJZ 221455Z AUTO 07003KT 1 1/4SM -SN BKN002 OVC014 00/00 A3013
        RMK AO2 T00000000

KMTJ 221122Z 2212/2312 01004KT P6SM VCFG OVC004
     FM221800 06002KT P6SM OVC015
     FM222000 35003KT P6SM VCSH OVC030
     FM230300 14005KT 6SM BR VCSH SCT007 OVC025
METAR KMTJ 221453Z AUTO 00000KT 4SM BR OVC004 M02/M02 A3012 RMK AO2
       SNB05E25 SLP207 P0000 60000 T10171022 53012
SPECI KMTJ 221407Z AUTO 36003KT 7SM -SN OVC004 M01/M03 A3011 RMK AO2
       SNB05 P0000 T10111028
METAR KMTJ 221353Z AUTO 00000KT 10SM OVC006 M01/M03 A3011 RMK AO2 SLP199
       T10111028

METAR KGUC 221456Z AUTO 30003KT 10SM FEW038 SCT046 M06/M07 A3002 RMK AO2
       SLP211 60000 T10611072 53011 FZRANO
METAR KGUC 221356Z AUTO 29005KT 10SM FEW050 M03/M05 A3001 RMK AO2 SNE06
       SLP196 P0000 T10331050 FZRANO
METAR KGUC 221256Z AUTO 33004KT 9SM -SN SCT039 SCT050 OVC075 M05/M06
       A2998 RMK AO2 SLP195 P0000 T10501061 FZRANO

METAR K7BM 221530Z AUTO 28013G24KT 10SM SCT036 SCT042 OVC050 M01/M10
       A2995 RMK AO2
METAR K7BM 221512Z AUTO 29008G23KT 10SM SCT029 SCT039 OVC045 M01/M10
       A2995 RMK AO2
METAR K7BM 221448Z AUTO 28012G20KT 240V310 7SM -SN SCT018 BKN028 OVC044
       M02/M09 A2995 RMK AO2

METAR KAEJ 221535Z AUTO 33008KT 10SM SCT070 00/M07 A2994 RMK AO2
       T10031070
METAR KAEJ 221515Z AUTO 32005KT 10SM SCT070 M01/M07 A2994 RMK AO2
       T10141075
METAR KAEJ 221455Z AUTO 31006KT 10SM SCT060 SCT070 M02/M08 A2994 RMK AO2
       T10191079

METAR KANK 221535Z AUTO 00000KT 10SM 00/M04 A3002 RMK AO1 T00021045
METAR KANK 221515Z AUTO 32004KT 10SM 00/M04 A3002 RMK AO1 T10051044
METAR KANK 221455Z AUTO 00000KT 10SM M01/M05 A3001 RMK AO1 T10111047

METAR KMYP 221534Z AUTO OVC001 M09/M11 A3003 RMK AO2 PWINO
METAR KMYP 221513Z AUTO OVC001 M09/M11 A3004 RMK AO2 PWINO
METAR KMYP 221453Z AUTO OVC001 M09/M11 A3003 RMK AO2 PWINO

METAR KAIB 221535Z AUTO 00000KT 5SM BR SCT002 OVC012 00/00 A3013 RMK
       AO2
METAR KAIB 221515Z AUTO 00000KT 1/4SM FG BKN002 OVC010 00/00 A3013 RMK
       AO2
METAR KAIB 221455Z AUTO 00000KT 1/2SM FG BKN002 OVC010 00/00 A3013 RMK
       AO2

KTEX 221233Z 2213/2312 27010KT 5SM -SN SCT001 BKN013 OVC027
      TEMPO 2213/2216 1/2SM -SN FG BKN001 OVC015
     FM221600 VRB04KT P6SM SCT010 BKN020 OVC040
     FM221900 31007KT P6SM SCT020 BKN040
     FM230200 VRB03KT P6SM VCSH SCT010 BKN050
METAR KTEX 221535Z AUTO 23006KT 10SM -SN SCT003 BKN024 OVC031 M03/M03
       A3008 RMK AO2
METAR KTEX 221515Z AUTO 27011KT 1 1/4SM -SN BKN003 BKN012 OVC016 M03/M03
       A3008 RMK AO2
METAR KTEX 221455Z AUTO 27008KT 1 1/4SM -SN SCT005 OVC012 M03/M03 A3007
       RMK AO2

METAR K04V 221530Z AUTO 00000KT 10SM BKN040 OVC048 M03/M03 A2998 RMK AO2
       PWINO
METAR K04V 221512Z AUTO 00000KT 10SM BKN040 OVC048 M03/M03 A2998 RMK AO2
       PWINO
METAR K04V 221454Z AUTO 19005KT 5SM SCT001 SCT039 OVC048 M04/M04 A2998
       RMK AO2 PWINO

METAR KCEZ 221453Z AUTO 00000KT 10SM SCT055 M01/M02 A3008 RMK AO2 SLP187
       T10111022 53011
METAR KCEZ 221353Z AUTO 22003KT 10SM CLR M01/M02 A3006 RMK AO2 SLP181
       T10111022
METAR KCEZ 221253Z AUTO 22003KT 9SM CLR M01/M01 A3004 RMK AO2 SLP175
       T10061011

KDRO 221122Z 2212/2312 00000KT P6SM OVC015
     FM221400 VRB03KT P6SM SCT006 BKN025
     FM221700 VRB03KT P6SM SCT014 BKN060
     FM230100 28005KT P6SM SCT050 BKN080
     FM230900 VRB04KT P6SM BKN100
SPECI KDRO 221540Z AUTO 20003KT 10SM OVC016 M02/M02 A3004 RMK AO2
       T10171022
METAR KDRO 221453Z AUTO 00000KT 10SM OVC011 M01/M02 A3002 RMK AO2 SLP187
       T10111022 53011
SPECI KDRO 221404Z AUTO 00000KT 10SM OVC010 M01/M02 A3000 RMK AO2
       T10061022

METAR KPSO 221535Z AUTO 29003KT 10SM OVC017 00/00 A3003 RMK AO2
       T10051005
METAR KPSO 221515Z AUTO 22003KT 5SM BR OVC017 M01/M01 A3003 RMK AO2
       T10061006
METAR KPSO 221455Z AUTO 00000KT 10SM OVC015 M01/M01 A3002 RMK AO2
       T10061006

METAR KCPW 221530Z AUTO 00000KT 7SM SCT024 M10/M10 A3006 RMK AO2
METAR KCPW 221512Z AUTO 29003KT 7SM BKN023 BKN028 M10/M10 A3006 RMK
       AO2
METAR KCPW 221447Z AUTO 28003KT 7SM BKN020 BKN028 M10/M10 A3005 RMK
       AO2

KALS 221304Z 2213/2312 VRB03KT P6SM BKN050
      TEMPO 2213/2215 BKN004
     FM221500 VRB06KT P6SM SCT020 BKN120
     FM230100 34006KT P6SM SCT030 SCT150
     FM230800 VRB03KT 2SM BR BKN020
METAR KALS 221452Z AUTO 00000KT 10SM CLR M09/M11 A2998 RMK AO2 SLP196
       T10891106 53010
METAR KALS 221352Z AUTO 00000KT 10SM OVC070 M09/M11 A2997 RMK AO2 SLP180
       T10891106
SPECI KALS 221312Z AUTO 27003KT 10SM SCT004 OVC075 M08/M11 A2995 RMK AO2
       T10831106

Sunrise/Sunset for 01/22/2020
Vail    - 07:21:02 MST / 17:12:52 MST
Durango - 07:21:33 MST / 17:24:27 MST
Alamosa - 07:13:59 MST / 17:16:03 MST

Grand Junction (KGJX) 01/22/20 15:32 UTC
Radar VAD winds      Height      Dir/Spd(kt)
                  22000 FT MSL...187/000
                  17000 FT MSL...312/025
                  16300 FT MSL...319/018
                  16000 FT MSL...317/022
                  15000 FT MSL...320/017
                  14600 FT MSL...328/016
                  14000 FT MSL...321/018
                  13000 FT MSL...324/018
                  12900 FT MSL...335/016
                  12000 FT MSL...321/019
                  11100 FT MSL...332/017
                  11000 FT MSL...323/023
                  11000 FT MSL...323/023
                  10400 FT MSL...322/020

Grand Junction Aviation Discussion
Issued at 1133 UTC Wednesday, January 22, 2020

.AVIATION...(For the 12Z TAFS through 12Z Thursday morning)
Issued at 425 AM MST Wed Jan 22 2020
It is a complicated aviation forecast to say the least. Low
stratus, fog, and light snow is causing MVFR down to LIFR this
morning. Cigs and vis may try to improve some later this morning
and early afternoon, but the amount of moisture upstream does not
make that look promising. Another round of scattered snow showers
is expected to move across the area this afternoon. These showers
could briefly worsen the conditions as they pass over sites.
Models show the moisture hanging around tonight therefore stratus
and or fog is likely again.


* * * * * Arizona * * * * *

KPGA 221519Z 2215/2312 VRB04KT 4SM BR SCT001 BKN200
      TEMPO 2215/2218 1/2SM FG VV001
     FM221800 VRB06KT P6SM BKN200
SPECI KPGA 221531Z AUTO 13003KT 4SM BR FEW003 00/M01 A3013 RMK AO2
       T00001006 TSNO
SPECI KPGA 221526Z AUTO 00000KT 2 1/2SM BR CLR 00/M01 A3012 RMK AO2
       T00001006 TSNO
SPECI KPGA 221513Z AUTO 26003KT 3SM BR SCT001 M01/M01 A3013 RMK AO2
       T10061011 TSNO

SPECI KRQE 221545Z AUTO 02003KT 10SM BKN016 01/M03 A3012 RMK AO2
       T00111028
METAR KRQE 221453Z AUTO 18003KT 10SM CLR M01/M04 A3010 RMK AO2 SLP173
       T10111039 53010
METAR KRQE 221353Z AUTO 00000KT 10SM SCT034 M01/M03 A3009 RMK AO2 SLP169
       T10061033

Flagstaff (KFSX) 01/22/20 15:35 UTC
Radar VAD winds      Height      Dir/Spd(kt)
                   7800 FT MSL...297/010

Flagstaff Aviation Discussion
Issued at 1200 UTC Wednesday, January 22, 2020

.AVIATION...For the 12Z package...Areas of MVFR and local IFR/LIFR
conditions to persist through 16Z due to low cigs and areas of fog.
A few light showers will linger along the NM border region until
18Z, with otherwise clearing conditions through the day. Expect
light winds less than 10 kts. Aviation discussion not updated for
TAF amendments.


* * * * * Utah * * * * *

KSLC 221458Z 2215/2318 15005KT P6SM VCSH SCT035 BKN045
     FM221700 29007KT P6SM SCT045 BKN080
     FM230300 15005KT P6SM SCT040 SCT120
     FM231200 15005KT P6SM BKN060 BKN120
METAR KSLC 221454Z 15004KT 10SM BKN043 BKN050 BKN065 03/02 A3009 RMK AO2
       SLP193 SH DSNT NE AND SE-SW 60001 T00330022 53016
METAR KSLC 221354Z 13003KT 8SM BKN037 OVC050 03/01 A3007 RMK AO2
       RAB00E32 SLP179 P0001 T00280011
METAR KSLC 221254Z 12004KT 9SM BKN041 OVC050 03/02 A3005 RMK AO2
       RAE03B20E49 SLP176 P0000 T00330017

KVEL 221522Z 2215/2312 00000KT 2SM BR BKN004 BKN008 OVC014
     FM221630 VRB04KT P6SM BKN010
     FM221800 VRB04KT P6SM BKN050
     FM230500 VRB04KT P6SM OVC060
SPECI KVEL 221513Z AUTO 00000KT 2SM BR BKN004 BKN008 OVC014 M05/M07
       A3011 RMK AO2 T10501067
METAR KVEL 221453Z AUTO 00000KT 2SM BR OVC006 M05/M07 A3010 RMK AO2
       SLP234 I1000 I3000 T10501067 53006
SPECI KVEL 221446Z AUTO 00000KT 2SM BR SCT003 OVC007 M05/M07 A3010 RMK
       AO2 I1000 T10501067

METAR KPUC 221453Z AUTO 00000KT M1/4SM FZFG VV001 M04/M04 A3007 RMK AO2
       SLP227 I3000 T10391039 53008 $
METAR KPUC 221353Z AUTO 00000KT 1/4SM FZFG VV001 M04/M05 A3005 RMK AO2
       SLP223 I1000 T10391050 $

KCNY 221122Z 2212/2312 VRB03KT 1/4SM FZFG VV008
      TEMPO 2212/2216 3SM BR BKN010
     FM221600 VRB03KT P6SM SCT010 OVC025
     FM222100 VRB03KT P6SM SCT020 OVC050
     FM230000 VRB03KT P6SM SCT010 BKN030
SPECI KCNY 221520Z AUTO 32004KT 4SM BR BKN005 OVC012 M03/M03 A3012 RMK
       AO2 CIG 003V007 T10281033
SPECI KCNY 221512Z AUTO 27004KT 2 1/2SM BR BKN005 OVC012 M03/M03 A3011
       RMK AO2 T10281033
SPECI KCNY 221458Z AUTO 24003KT 1SM BR OVC005 M03/M03 A3010 RMK AO2
       T10281033


Salt Lake City (KMTX) 01/22/20 15:37 UTC
Radar VAD winds      Height      Dir/Spd(kt)
                  15000 FT MSL...280/022
                  14000 FT MSL...284/023
                  13700 FT MSL...288/024
                  13000 FT MSL...285/025
                  12200 FT MSL...288/025
                  12000 FT MSL...287/025
                  11000 FT MSL...290/025
                  11000 FT MSL...293/024
                  10000 FT MSL...294/024
                  10000 FT MSL...296/024
                   9100 FT MSL...296/022
                   9000 FT MSL...298/023
                   8400 FT MSL...295/020
                   8000 FT MSL...296/020
                   7700 FT MSL...294/015
                   7200 FT MSL...304/017
                   7000 FT MSL...304/016
                   6900 FT MSL...306/015

Salt Lake City Aviation Discussion
Issued at 1058 UTC Wednesday, January 22, 2020

.AVIATION...VFR conditions with periods of MVFR in passing snow
showers with lower CIGs are expected to persist over the SLC
terminal through about 16Z. Low CIGs between 3,000-5,000ft AGL
should begin to taper off by ~20Z, allowing for minimal ceiling
concerns through the remainder of the TAF period.


* * * * * Wyoming * * * * *

KEVW 221137Z 2212/2312 24008KT 3SM -SN BKN007 BKN030 OVC050
      TEMPO 2212/2214 1/2SM FZFG VV003
     FM221800 26015KT P6SM BKN030 BKN180
     FM222300 24012KT P6SM SCT030 SCT200
     FM230600 24012KT P6SM BKN030 OVC100=
SPECI KEVW 221544Z AUTO 26011KT 1 3/4SM -SN BR FEW021 BKN033 OVC041
       M02/M04 A3004 RMK AO2 SNB37 P0000 T10221039
METAR KEVW 221453Z AUTO 25015KT 10SM SCT035 SCT050 M02/M04 A3002 RMK AO2
       SNE11 SLP176 P0000 60002 T10221039 53008
SPECI KEVW 221411Z AUTO 24011KT 6SM BR FEW002 OVC046 M03/M04 A3001 RMK
       AO2 SNE11 P0000 T10281039

KRKS 221134Z 2212/2312 23014G20KT P6SM VCSH SCT015 BKN035
      TEMPO 2212/2214 5SM -SN BKN015
     FM221500 25015G25KT P6SM SCT035 BKN060
     FM221900 26022G35KT P6SM SCT060 BKN250
     FM230000 27014G20KT P6SM SCT060 BKN250
METAR KRKS 221454Z AUTO 25016G24KT 10SM FEW010 BKN075 BKN090 M02/M04
       A2997 RMK AO2 SLP175 T10221039 50006
SPECI KRKS 221451Z AUTO 24016G23KT 10SM SCT010 BKN075 BKN090 M03/M04
       A2997 RMK AO2
SPECI KRKS 221444Z AUTO 25016G23KT 10SM BKN009 BKN085 M03/M04 A2998 RMK
       AO2 T10281039

KRWL 221332Z 2214/2312 26022G32KT P6SM VCSH BKN015 OVC060
     FM222300 26015G25KT P6SM FEW120
     FM230200 26015G25KT P6SM SKC
METAR KRWL 221453Z AUTO 25017G26KT 10SM OVC010 M02/M04 A2994 RMK AO2 PK
       WND 26026/1446 SLP151 T10221044 51014
METAR KRWL 221353Z AUTO 25017KT 10SM OVC012 M03/M06 A2993 RMK AO2 SLP150
       T10281056
SPECI KRWL 221313Z AUTO 25013KT 10SM BKN014 M03/M06 A2992 RMK AO2
       T10331056

KLAR 221125Z 2212/2312 27012KT P6SM OVC080
     FM221600 27015G25KT P6SM BKN120
     FM221800 27020G30KT P6SM SCT150
     FM222000 27025G35KT P6SM FEW150
METAR KLAR 221453Z AUTO 27011KT 10SM CLR M03/M08 A2986 RMK AO2 PK WND
       26026/1425 SLP122 T10331078 53005
METAR KLAR 221353Z AUTO 27014KT 10SM CLR M03/M08 A2985 RMK AO2 SLP112
       T10281078
METAR KLAR 221253Z AUTO 28016G21KT 10SM OVC100 M02/M08 A2985 RMK AO2
       SLP101 T10171078

KCYS 221125Z 2212/2312 33015G25KT P6SM BKN100
     FM221700 30020G30KT P6SM FEW120
     FM222000 30025G35KT P6SM FEW150
METAR KCYS 221453Z 31014G21KT 10SM CLR 03/M07 A2982 RMK AO2 SLP097
       T00281072 53004
METAR KCYS 221353Z 30009KT 10SM CLR 01/M07 A2982 RMK AO2 SLP090
       T00111067
METAR KCYS 221253Z 31005KT 10SM CLR M01/M07 A2981 RMK AO2 SLP088
       T10061067

Riverton (KRIW) 01/22/20 15:39 UTC
Radar VAD winds      Height      Dir/Spd(kt)
                  14000 FT MSL...270/015
                  13000 FT MSL...264/020
                  12000 FT MSL...321/019
                   9000 FT MSL...302/015
                   8100 FT MSL...326/003
                   8000 FT MSL...317/018
                   6200 FT MSL...313/026
                   6000 FT MSL...307/022
                   6000 FT MSL...309/020

Cheyenne (KCYS) 01/22/20 15:34 UTC
Radar VAD winds      Height      Dir/Spd(kt)
                   9000 FT MSL...297/053

Riverton Aviation Discussion
Issued at 1146 UTC Wednesday, January 22, 2020

.AVIATION...(For the 12Z TAFS through 12Z Thursday)
Issued at 330 AM MST Wed Jan 22 2020
West of the Divide...KBPI/KJAC/KPNA/KRKS Terminals
Ongoing snow with areas of MVFR conditions (brief IFR) across the
west should end in most locations by around 15Z. The exception
will be the far western mountains which will keep some light
snow/flurries much of the day. Breezy to windy west to northwest
winds will continue or develop across much of the area with
exception of JAC which will be more south southwest. Another round
of snow is expected over the far west after 06Z Wednesday with
MVFR ceilings possible at KJAC.
East of the Divide...KCOD/KCPR/KLND/KRIW/KWRL Terminals
A cold front will slide south and east today with breezy to windy
west to northwest wind. Along and just in its wake there will be
a 2 to 4 hour window where isolated to scattered snow showers are
possible. This activity will be begin over the north Bighorn Basin
around 14Z and slide southeast exiting Natrona County by around
00Z. Terminals will have a chance of a snow showers, except KRIW
and KLND which should be south/southwest of the snow showers.
Brief IFR conditions are possible in snow showers. Will only have
VCSH in terminals as timing/coverage/confidence of shower activity
impacting terminals is not great enough to tempo lower
conditions. Decreasing cloudiness is expected after a few hours
after frontal passage with VFR conditions through the rest of the
TAF period. Winds will also decrease in most areas by around 00Z.

Cheyenne Aviation Discussion
Issued at 1138 UTC Wednesday, January 22, 2020

.AVIATION...(For the 12Z TAFS through 12Z Thursday morning)
Issued at 426 AM MST Wed Jan 22 2020
VFR conditions are anticipated at terminals in SE WY and the
Panhandle this morning through early afternoon, with the
exception of RWL. RWL may fluctuate between VFR and MVFR this
morning due to nearby snow showers in the higher terrain of Carbon
County. Recent observations at RWL have fluctuated between SKC and
BKN100 because of the clouds nearby, making the TAF tricky.
Decided against a TEMPO group at this time. Strong winds at the WY
and southern Panhandle terminals will also be an issue today with
wind gusts up to 25-35 knots at times. CDR and AIA will be the
outliers with wind gusts up to 20-25 knots this afternoon. Later
discussions will likely detail the chance for snow showers in the
northern Panhandle this afternoon for CDR and AIA.


* * * * * Nebraska * * * * *

METAR KIBM 221535Z AUTO 30019G24KT 10SM CLR 04/M04 A2981 RMK AO2
       T00381045
METAR KIBM 221515Z AUTO 30020G28KT 10SM CLR 04/M04 A2980 RMK AO2
       T00361044
METAR KIBM 221455Z AUTO 29016KT 10SM CLR 03/M04 A2979 RMK AO2
       T00331043

KSNY 221125Z 2212/2312 29010G20KT P6SM BKN070
     FM221600 32015G25KT P6SM SCT120
     FM221800 32020G30KT P6SM SCT150
     FM222100 33025G35KT P6SM SCT200
METAR KSNY 221453Z AUTO 31016KT 10SM CLR 02/M04 A2977 RMK AO2 SLP100
       T00221044 52009
METAR KSNY 221353Z AUTO 28008KT 10SM CLR 01/M05 A2976 RMK AO2 SLP095
       T00111050
METAR KSNY 221253Z AUTO 30011KT 10SM CLR 03/M04 A2975 RMK AO2 SLP081
       T00331039

METAR KOGA 221535Z AUTO 28007KT 10SM OVC110 06/M02 A2977 RMK AO2
       T00571019
METAR KOGA 221515Z AUTO 30009KT 10SM OVC110 05/M02 A2975 RMK AO2
       T00511020
METAR KOGA 221455Z AUTO 32012KT 10SM OVC110 05/M02 A2975 RMK AO2
       T00541020

METAR KIML 221453Z AUTO 31008KT 10SM BKN110 02/M03 A2976 RMK AO2 SLP094
       T00221033 53009
METAR KIML 221353Z AUTO 30007KT 10SM OVC110 01/M03 A2974 RMK AO2 SLP090
       T00111033
METAR KIML 221253Z AUTO 29006KT 10SM OVC120 00/M04 A2973 RMK AO2 SLP087
       T00001039

KMCK 221435Z 2215/2312 25007KT 5SM BR SKC
      TEMPO 2215/2216 5SM
     FM221600 27005KT P6SM BKN050
     FM221800 32011KT P6SM SCT250
     FM230500 32011KT P6SM BKN030
     FM230900 31010KT P6SM SCT080
METAR KMCK 221453Z AUTO 27007KT 6SM BR SCT120 00/M01 A2975 RMK AO2
       SLP092 T00001011 53002
METAR KMCK 221353Z AUTO 25007KT 4SM BR CLR M01/M01 A2975 RMK AO2 SLP091
       T10061011
SPECI KMCK 221329Z AUTO 23005KT 4SM BR SCT120 M01/M01 A2974 RMK AO2
       T10061011

North Platte (KLNX) 01/22/20 15:32 UTC
Radar VAD winds      Height      Dir/Spd(kt)
                  20000 FT MSL...254/017
                  19000 FT MSL...268/014
                  18000 FT MSL...278/014
                  17000 FT MSL...288/014
                  16000 FT MSL...294/014
                  15000 FT MSL...276/015
                  14000 FT MSL...284/006
                  13000 FT MSL...289/008
                   4000 FT MSL...337/010
                   3400 FT MSL...344/018

North Platte Aviation Discussion
Issued at 1147 UTC Wednesday, January 22, 2020

.AVIATION...(For the 12Z TAFS through 12Z Thursday morning)
Issued at 539 AM CST Wed Jan 22 2020
Fog and low ceilings this morning will bring MVFR and IFR
condition through the morning hours. Fog will diminish by mid-
morning and ceilings will begin to lift out of IFR and MVFR
criteria by early afternoon. VFR conditions are expected during
the afternoon. Then lower ceilings return this evening along with
a chance for light snow mainly across the Sandhills into north
central Nebraska. Snowfall will be light with the greatest
potential across north central Nebraska.


* * * * * Kansas * * * * *

KGLD 221125Z 2212/2312 29008KT P6SM BKN140
     FM221700 34020G28KT P6SM SCT250
     FM230000 35010KT P6SM FEW250
     FM231000 32013KT P6SM SKC
METAR KGLD 221453Z AUTO 29012KT 10SM BKN110 02/M03 A2977 RMK AO2 SLP091
       T00221028 51010
METAR KGLD 221353Z AUTO 30008KT 10SM BKN120 M01/M04 A2976 RMK AO2 SLP088
       T10061039
METAR KGLD 221253Z AUTO 29007KT 10SM OVC100 M01/M04 A2975 RMK AO2 SLP085
       T10111039

KGCK 221423Z 2214/2312 VRB05KT 1/4SM FG VV001
     FM221600 27008KT P6SM BKN070
     FM221700 30009KT P6SM SCT120
     FM222100 33013KT P6SM SKC
METAR KGCK 221454Z 16006KT M1/4SM FG VV002 02/02 A2979 RMK AO2 SLP100
       T00170017 53013
SPECI KGCK 221418Z 00000KT 1/4SM FG BKN002 01/01 A2979 RMK AO2
       T00110006
SPECI KGCK 221403Z 18003KT 3/4SM BR VV004 01/01 A2978 RMK AO2
       T00110006

METAR KLBL 221456Z AUTO 22004KT 6SM BR BKN110 02/01 A2980 RMK AO2 SLP104
       T00170011 53013 FZRANO
METAR KLBL 221356Z AUTO 21005KT 8SM SCT017 02/01 A2979 RMK AO2 SLP097
       T00170011 FZRANO
METAR KLBL 221256Z AUTO 20007KT 10SM CLR 02/01 A2976 RMK AO2 SLP087
       T00220011 FZRANO

METAR KEHA 221535Z AUTO 34008KT 10SM CLR 06/02 A2982 RMK AO2
       T00560019
METAR KEHA 221515Z AUTO 35007KT 10SM CLR 05/02 A2982 RMK AO2
       T00500016
METAR KEHA 221455Z AUTO 34006KT 10SM CLR 04/01 A2981 RMK AO2
       T00420010

Goodland (KGLD) 01/22/20 15:31 UTC
Radar VAD winds      Height      Dir/Spd(kt)
                  17000 FT MSL...296/031
                  16000 FT MSL...289/035
                  15000 FT MSL...289/033
                  14000 FT MSL...289/023
                  13000 FT MSL...304/024
                  12000 FT MSL...325/031
                   4600 FT MSL...301/011
                   4000 FT MSL...317/022
                   4000 FT MSL...311/023

Dodge City (KDDC) 01/22/20 15:35 UTC
Radar VAD winds      Height      Dir/Spd(kt)
                  14000 FT MSL...320/022
                  13000 FT MSL...329/021
                  12000 FT MSL...336/021
                  11000 FT MSL...333/024
                  10000 FT MSL...330/025
                   9000 FT MSL...331/029
                   7000 FT MSL...061/009
                   7000 FT MSL...061/009
                   6000 FT MSL...053/005
                   5000 FT MSL...160/003
                   4000 FT MSL...179/015

Goodland Aviation Discussion
Issued at 1133 UTC Wednesday, January 22, 2020

.AVIATION...(For the 12Z TAFS through 12Z Thursday morning)
Issued at 425 AM MST Wed Jan 22 2020
VFR to MVFR conditions forecast for the TAFs. KNRN, KOIN, KMCK are
all reporting fog. KNRN currently has IFR ceiling. Have high
confidence of the fog/stratus continuing at KMCK for the next
several hours. However, confidence is on the low side that the
ceiling will lower to IFR due to the northwest wind shift not
being too far west of KMCK, where the fog/stratus end. In
addition, KOEL was overcast and is not scattered and KOIN only
has fog. Am thinking that KMCK should be on the west edge of the
stratus and hopefully remain in the slightly higher ceiling. If
KMCK is going to have IFR ceiling, will occur in the next hour.
Otherwise northwest winds will breezy today, especially for KGLD,
then lighten tonight. MVFR conditions may return to KMCK as the
cold front moves through this evening.

Dodge City Aviation Discussion
Issued at 1026 UTC Wednesday, January 22, 2020

.AVIATION...(For the 12Z TAFS through 12Z Thursday morning)
Issued at 424 AM CST Wed Jan 22 2020
IFR to LIFR conditions will continue over the next couple of hours
followed by clearing from west to east and VFR conditions by this
afternoon. Winds will be from the south this morning shifting to
the north by this evening behind a cold front.


* * * * * Texas/Oklahoma * * * * *

KGUY 221120Z 2212/2312 24010KT P6SM BKN120
     FM221600 35013KT P6SM BKN120
     FM230100 34010KT P6SM SCT250=
METAR KGUY 221453Z AUTO 32010KT 10SM FEW120 02/M01 A2979 RMK AO2 SLP091
       T00221011 53017
METAR KGUY 221353Z AUTO 24006KT 9SM FEW090 00/M02 A2977 RMK AO2 SLP083
       T00001017
METAR KGUY 221253Z AUTO 20006KT 9SM CLR 01/M01 A2974 RMK AO2 SLP073
       T00061006

KDHT 221120Z 2212/2312 32008KT P6SM BKN120
     FM221600 01015KT P6SM BKN120
     FM230100 VRB03KT P6SM SCT250
     FM230600 35013KT P6SM SCT250
METAR KDHT 221453Z AUTO 33006KT 10SM OVC120 03/00 A2981 RMK AO2 SLP095
        T00280000 53016
METAR KDHT 221353Z AUTO 27005KT 10SM OVC110 01/00 A2979 RMK AO2 SLP090
       T00110000
METAR KDHT 221253Z AUTO 22007KT 6SM BR CLR 00/M01 A2976 RMK AO2 SLP082
       T00001006

Amarillo (KAMA) 01/22/20 15:34 UTC
Radar VAD winds      Height      Dir/Spd(kt)
                  26000 FT MSL...264/028
                  25000 FT MSL...264/028
                  24000 FT MSL...263/026
                  20000 FT MSL...278/019
                  19000 FT MSL...283/019
                  18000 FT MSL...302/019
                  17000 FT MSL...311/020
                  16000 FT MSL...315/019
                  15000 FT MSL...317/019
                  14000 FT MSL...325/020
                  13000 FT MSL...311/014
                  12000 FT MSL...302/008
                  11500 FT MSL...303/010
                  11000 FT MSL...314/006
                  10000 FT MSL...314/005
                   9800 FT MSL...311/005
                   9000 FT MSL...306/004
                   8000 FT MSL...305/004
                   8000 FT MSL...313/005
                   7000 FT MSL...266/002
                   6300 FT MSL...305/007
                   6000 FT MSL...331/017
                   5000 FT MSL...326/022
                   4600 FT MSL...303/023
                   4600 FT MSL...316/023
                   4000 FT MSL...290/023
                   4000 FT MSL...298/022

Amarillo Aviation Discussion
Issued at 1123 UTC Wednesday, January 22, 2020

.AVIATION...
Southwest winds at AMA and GUY will gradually become northerly by
mid to late morning as a cold front moves through the area. DHT
will be northwest behind a surface trough before turning more
northerly behind the cold front. Wind speeds are expected to be in
the 10 to 15 knot range behind the front. Skies are expected to
remain VFR.


* * * * * New Mexico * * * * *

KFMN 221357Z 2214/2312 28011KT P6SM BKN010
      TEMPO 2214/2216 BKN005
     FM221700 28010G17KT P6SM SCT060 SCT200
     FM222000 29013G19KT P6SM SCT200
     FM230200 28006KT P6SM SCT010
METAR KFMN 221453Z 27016G21KT 9SM OVC004 00/M01 A3005 RMK AO2 SLP190
       T00001011 53010
SPECI KFMN 221400Z 28014G20KT 10SM OVC004 00/M01 A3003 RMK AO2
       T00001011
METAR KFMN 221353Z 28012KT 10SM OVC005 00/M01 A3003 RMK AO2 SLP180
       T00001011

METAR KSKX 221456Z AUTO 00000KT 1/4SM FZFG OVC002 M03/M03 A3001 RMK AO2
       SLP183 T10281028 53012 FZRANO RVRNO
SPECI KSKX 221441Z AUTO 00000KT 1/4SM FZFG OVC002 M03/M03 A3001 RMK AO2
       FZRANO RVRNO
SPECI KSKX 221424Z AUTO 00000KT 1/2SM FZFG OVC002 M02/M02 A3000 RMK AO2
       FZRANO RVRNO

KLVS 221126Z 2212/2312 12008KT P6SM SCT200
     FM221500 34010KT P6SM SCT200
     FM230300 36006KT P6SM SCT200
METAR KLVS 221453Z AUTO 32013KT 10SM CLR 00/M04 A2989 RMK AO2 SLP106
       T00001044 53012
METAR KLVS 221353Z AUTO 34012KT 10SM CLR M02/M05 A2987 RMK AO2 SLP103
       T10171050

METAR KRTN 221453Z AUTO 06007KT 10SM CLR M02/M04 A2986 RMK AO2 SLP116
       T10221039 53011
METAR KRTN 221353Z AUTO 03008KT 10SM CLR M03/M04 A2984 RMK AO2 SLP111
       T10331044
METAR KRTN 221253Z AUTO 05007KT 10SM FEW095 M03/M04 A2983 RMK AO2 SLP107
       T10331044

METAR KCAO 221455Z AUTO 34009KT 10SM OVC110 05/M02 A2982 RMK AO2 SLP096
       T00501017 51020
METAR KCAO 221355Z AUTO 32012KT 10SM OVC110 05/M02 A2980 RMK AO2 SLP088
       T00501017

Albuquerque (KABX) 01/22/20 15:30 UTC
Radar VAD winds      Height      Dir/Spd(kt)
                  11000 FT MSL...344/001
                  10000 FT MSL...316/022
                   9000 FT MSL...076/009
                   8000 FT MSL...348/008
                   6900 FT MSL...336/005
                   6300 FT MSL...164/004

Albuquerque Aviation Discussion
Issued at 1327 UTC Wednesday, January 22, 2020

.AVIATION...
12Z TAF CYCLE
IFR/LIFR conditions will persist through the early morning hours at
numerous TAF locations to include KABQ, KAEG, and KROW. Gradual
improvements have already begun at KGUP and KFMN, and this trend is
expected elsewhere through the morning into the early afternoon.
Confidence is a bit low on precise timing of these improvements, so
some AMDs may be made to adjust as necessary. Mtn obscurations will
be common through the west and north this morning as well. Breezy nw
winds will fill in through much of NM this afternoon. As winds
decouple overnight into Thu, fog may bring the return of IFR
conditions to more isolated spots Thu morning however confidence in
this is rather low at this time.
24

* * * * * Winds and Temperatures Aloft Forecasts * * * * *

DATA BASED ON 221200Z
VALID 221800Z   FOR USE 1700-2100Z. TEMPS NEG ABV 24000
FT  3000    6000   9000    12000   18000   24000  30000  34000  39000
SLC      9900    3018-06 2829-12 3146-21 3265-33 328348 327952 326452
BCE                      3227-08 3242-18 3252-30 316646 327454 326255
LND              3119-06 3117-14 2949-24 3066-34 306250 306753 305348
RKS              2930    2844-13 3042-22 3139-35 326650 316152 315451
GJT              3014-04 3220-10 3131-23 3245-35 336748 326552 325251
FMN              3326-02 3327-08 3335-22 3359-33 336547 326551 315951
ABQ              3331-02 3334-07 3133-21 3142-33 316045 315450 306450
MBW              2936    2929-11 2934-24 2931-36 293051 303652 303349
DEN              3234-01 3431-08 3222-24 2723-36 273251 293050 302850
PUB              3422-01 3519-09 3013-22 2718-34 263251 282950 303250
ALS                      3424-09 3222-23 2821-35 293148 304148 314249
TCC      3620    3517-01 3214-06 3120-20 2923-32 282948 274249 294249
BFF      3231    3316-03 3222-10 3020-23 2721-35 242752 252452 272451
GLD      3431    3228-03 3224-09 2819-21 2625-33 262150 242652 262650
GCK      3435+05 3328-02 3124-08 2726-21 2524-32 253449 243351 272650
GAG      9900+05 3518+00 3419-07 2721-20 2522-31 242648 244050 273351
AMA      3608    3607+01 3407-06 2920-20 2623-32 262748 264049 283850
---------------------------------------------------------------------

DATA BASED ON 221200Z
VALID 230000Z   FOR USE 2100-0600Z. TEMPS NEG ABV 24000
FT  3000    6000   9000    12000   18000   24000  30000  34000  39000
SLC      9900    3020-07 3133-12 3253-19 3356-31 337747 327854 327251
BCE                      3330-07 3333-17 3240-29 325345 326052 316754
LND              3118-07 3125-15 3263-25 3279-35 339249 318151 326149
RKS              2928    3128-14 3256-22 3374-33 338849 328153 326650
GJT              2914-04 3125-11 3248-21 3365-33 337548 327852 327251
FMN              3327-01 3327-08 3248-19 3365-32 327647 327051 326853
ABQ              3332-02 3430-07 3350-19 3263-31 318246 317351 316252
MBW              2936    3128-15 3061-25 3071-35 306049 316550 314749
DEN              3126-04 3038-10 3019-24 3034-36 315850 325651 303849
PUB              3409+00 3313-09 3024-23 3333-35 334748 324751 304251
ALS                      3227-09 3228-22 3244-34 326048 325949 315051
TCC      0614    3416-01 3323-08 3129-21 3120-34 324744 315049 304950
BFF      3332    3124-06 3026-14 2830-26 2742-35 284151 293951 293048
GLD      3434    3332-03 3337-09 3027-22 2829-36 282550 282651 283149
GCK      3221+05 3328-02 3327-09 3026-20 2729-34 263251 262651 263250
GAG      3427+06 3423-01 3317-08 2818-20 2722-33 262950 262851 253949
AMA      0228    0229-03 0412-07 3118-20 3115-33 221350 293848 284149
---------------------------------------------------------------------

DATA BASED ON 221200Z
VALID 231200Z   FOR USE 0600-1700Z. TEMPS NEG ABV 24000
FT  3000    6000   9000    12000   18000   24000  30000  34000  39000
SLC      9900    3117-05 3225-09 3233-18 3139-29 316146 326154 326153
BCE                      3514-05 3225-16 3236-28 324146 336152 326052
LND              3219-06 3236-11 3360-20 3474-31 338547 328256 326951
RKS              3024    3237-11 3352-20 3365-31 338347 338356 327251
GJT              3406-07 3326-08 3240-19 3363-30 347347 338556 327351
FMN              3316-02 3425-04 3236-17 3246-30 356647 347053 326851
ABQ              3327-01 3423-03 3337-17 3240-31 325447 346952 326950
MBW              2923    3132-15 3368-22 3482-33 349648 338552 337050
DEN              3420-08 3327-14 3369-22 3376-33 348249 338551 336448
PUB              3014-06 3121-13 3370-20 3269-33 337149 338451 336449
ALS                      3226-08 3354-19 3366-32 336649 349153 327349
TCC      0330    9900-04 2927-09 3351-18 3256-32 335949 326651 316251
BFF      3333    3432-09 3426-16 3344-29 3493-34 348047 336748 335548
GLD      3441    3536-09 3330-17 3349-29 3376-35 326844 335847 324948
GCK      3534-02 3334-08 3139-14 3047-27 3164-35 316445 314748 315149
GAG      3535+00 3239-04 3036-11 2940-22 3043-35 305948 304550 315048
AMA      0136    3219-03 3028-10 3345-21 3261-32 326549 325650 316450
---------------------------------------------------------------------

This product is updated automatically at approximately 10, 30 and 50
minutes after each hour, 24 hours per day, 7 days per week.  It may
become unavailable at times due to system outages without prior notice.
Users are advised to check the time at the top of the product to ensure
that it is current.  Furthermore, content and format of the product are
subject to change without prior notice.

Comments and suggestions are welcome and should be directed to one of
the addresses or phone numbers shown at the bottom of this page.  In
order to expedite a response to comments or suggestions, be sure to
mention your interest in the hot-air balloon forecast.



USA.gov is the U.S. government's official web portal to all federal, state and local government web resources and services.